createdAt,value
2022-07-26T00:01:19.075Z,23.67
2022-07-26T00:03:48.113Z,23.85
2022-07-26T00:06:16.396Z,24.00
2022-07-26T00:08:47.380Z,23.88
2022-07-26T00:11:15.305Z,23.91
2022-07-26T00:13:42.730Z,23.79
2022-07-26T00:16:10.621Z,23.59
2022-07-26T00:18:38.318Z,23.49
2022-07-26T00:21:05.971Z,23.41
2022-07-26T00:23:35.058Z,23.48
2022-07-26T00:26:02.466Z,23.08
2022-07-26T00:28:29.931Z,23.25
2022-07-26T00:30:57.647Z,23.19
2022-07-26T00:33:25.128Z,23.18
2022-07-26T00:35:52.510Z,23.22
2022-07-26T00:38:20.188Z,23.14
2022-07-26T00:40:47.667Z,23.05
2022-07-26T00:43:15.063Z,23.21
2022-07-26T00:45:43.027Z,23.07
2022-07-26T00:48:10.648Z,23.19
2022-07-26T00:50:38.121Z,23.07
2022-07-26T00:53:05.825Z,22.93
2022-07-26T00:55:33.237Z,22.65
2022-07-26T00:58:03.782Z,22.80
2022-07-26T01:00:31.496Z,22.45
2022-07-26T01:03:00.578Z,22.83
2022-07-26T01:05:28.356Z,22.84
2022-07-26T01:07:56.527Z,22.66
2022-07-26T01:10:23.994Z,23.07
2022-07-26T01:12:51.429Z,22.50
2022-07-26T01:15:19.513Z,22.51
2022-07-26T01:17:47.456Z,22.67
2022-07-26T01:20:14.991Z,22.36
2022-07-26T01:22:42.709Z,22.44
2022-07-26T01:25:10.401Z,22.61
2022-07-26T01:27:40.588Z,22.86
2022-07-26T01:30:10.492Z,22.90
2022-07-26T01:32:38.006Z,22.69
2022-07-26T01:35:07.190Z,22.69
2022-07-26T01:37:34.838Z,22.52
2022-07-26T01:40:02.623Z,22.61
2022-07-26T01:42:30.021Z,22.47
2022-07-26T01:44:57.757Z,22.39
2022-07-26T01:47:25.152Z,22.38
2022-07-26T01:49:52.547Z,22.14
2022-07-26T01:52:20.206Z,22.01
2022-07-26T01:54:47.702Z,22.46
2022-07-26T01:57:15.117Z,22.18
2022-07-26T01:59:42.885Z,22.24
2022-07-26T02:02:10.659Z,22.39
2022-07-26T02:04:57.385Z,22.31
2022-07-26T02:07:28.867Z,22.52
2022-07-26T02:09:57.179Z,22.57
2022-07-26T02:12:25.570Z,22.17
2022-07-26T02:14:52.960Z,22.21
2022-07-26T02:17:20.630Z,21.85
2022-07-26T02:19:48.067Z,22.10
2022-07-26T02:22:15.478Z,21.92
2022-07-26T02:24:43.249Z,21.62
2022-07-26T02:27:11.126Z,21.80
2022-07-26T02:29:38.737Z,21.81
2022-07-26T02:32:06.872Z,21.82
2022-07-26T02:34:34.392Z,21.96
2022-07-26T02:37:01.803Z,22.02
2022-07-26T02:39:29.789Z,22.20
2022-07-26T02:41:58.941Z,21.97
2022-07-26T02:44:27.156Z,21.57
2022-07-26T02:46:55.060Z,21.48
2022-07-26T02:49:22.811Z,21.66
2022-07-26T02:51:50.200Z,21.92
2022-07-26T02:54:17.920Z,21.95
2022-07-26T02:56:45.299Z,21.94
2022-07-26T02:59:12.769Z,22.03
2022-07-26T03:01:40.604Z,21.95
2022-07-26T03:04:08.369Z,21.92
2022-07-26T03:06:36.023Z,21.65
2022-07-26T03:09:03.988Z,21.82
2022-07-26T03:11:31.452Z,21.51
2022-07-26T03:13:58.860Z,21.73
2022-07-26T03:16:29.631Z,21.89
2022-07-26T03:18:57.784Z,21.87
2022-07-26T03:21:25.200Z,21.90
2022-07-26T03:23:53.532Z,21.80
2022-07-26T03:26:21.087Z,21.49
2022-07-26T03:28:48.502Z,21.79
2022-07-26T03:31:16.219Z,21.61
2022-07-26T03:33:43.646Z,21.87
2022-07-26T03:36:11.552Z,21.96
2022-07-26T03:38:43.205Z,22.06
2022-07-26T03:41:13.503Z,22.04
2022-07-26T03:43:41.369Z,22.16
2022-07-26T03:46:09.207Z,22.11
2022-07-26T03:48:36.843Z,22.32
2022-07-26T03:51:06.659Z,22.45
2022-07-26T03:53:34.637Z,22.58
2022-07-26T03:56:21.338Z,22.58
2022-07-26T03:58:49.074Z,22.74
2022-07-26T04:01:16.519Z,22.72
2022-07-26T04:03:47.519Z,22.83
2022-07-26T04:06:15.372Z,23.17
2022-07-26T04:08:43.105Z,23.16
2022-07-26T04:11:11.048Z,22.91
2022-07-26T04:13:38.450Z,23.07
2022-07-26T04:16:06.653Z,22.77
2022-07-26T04:18:34.788Z,23.21
2022-07-26T04:21:02.289Z,23.57
2022-07-26T04:23:29.764Z,23.90
2022-07-26T04:25:57.453Z,23.93
2022-07-26T04:28:28.792Z,23.99
2022-07-26T04:30:57.695Z,23.88
2022-07-26T04:33:25.749Z,24.14
2022-07-26T04:35:53.546Z,24.35
2022-07-26T04:38:20.934Z,24.24
2022-07-26T04:40:50.487Z,23.84
2022-07-26T04:43:18.445Z,23.28
2022-07-26T04:45:46.419Z,23.53
2022-07-26T04:48:15.181Z,23.32
2022-07-26T04:50:43.661Z,23.86
2022-07-26T04:53:11.282Z,23.66
2022-07-26T04:55:39.524Z,24.11
2022-07-26T04:58:07.043Z,23.84
2022-07-26T05:00:51.081Z,24.02
2022-07-26T05:03:25.066Z,23.83
2022-07-26T05:05:52.729Z,24.38
2022-07-26T05:08:20.386Z,24.92
2022-07-26T05:10:53.131Z,25.51
2022-07-26T05:13:25.246Z,25.26
2022-07-26T05:15:59.737Z,25.45
2022-07-26T05:18:27.662Z,25.12
2022-07-26T05:20:57.719Z,25.62
2022-07-26T05:23:25.162Z,26.03
2022-07-26T05:25:52.560Z,26.29
2022-07-26T05:28:20.225Z,26.36
2022-07-26T05:30:47.692Z,26.21
2022-07-26T05:33:16.704Z,26.52
2022-07-26T05:35:44.566Z,26.45
2022-07-26T05:38:11.962Z,26.59
2022-07-26T05:40:39.367Z,26.60
2022-07-26T05:43:07.453Z,27.37
2022-07-26T05:45:34.889Z,27.94
2022-07-26T05:48:02.355Z,28.14
2022-07-26T05:50:30.115Z,28.48
2022-07-26T05:52:57.503Z,28.69
2022-07-26T05:55:24.891Z,28.96
2022-07-26T05:57:52.647Z,29.07
2022-07-26T06:00:20.912Z,29.31
2022-07-26T06:02:48.676Z,29.26
2022-07-26T06:05:16.245Z,29.42
2022-07-26T06:07:43.646Z,29.96
2022-07-26T06:10:11.341Z,29.99
2022-07-26T06:12:38.799Z,29.58
2022-07-26T06:15:15.612Z,29.84
2022-07-26T06:17:43.657Z,30.12
2022-07-26T06:20:11.476Z,30.33
2022-07-26T06:22:38.903Z,30.10
2022-07-26T06:25:06.969Z,30.08
2022-07-26T06:27:34.419Z,30.09
2022-07-26T06:30:01.897Z,30.55
2022-07-26T06:32:29.571Z,29.87
2022-07-26T06:34:56.989Z,30.26
2022-07-26T06:37:24.402Z,29.69
2022-07-26T06:39:52.630Z,30.08
2022-07-26T06:42:20.202Z,30.24
2022-07-26T06:44:47.602Z,30.42
2022-07-26T06:47:15.327Z,30.71
2022-07-26T06:49:44.803Z,30.33
2022-07-26T06:52:12.401Z,31.11
2022-07-26T06:54:40.073Z,31.16
2022-07-26T06:57:08.151Z,31.60
2022-07-26T06:59:36.124Z,31.33
2022-07-26T07:02:04.680Z,31.59
2022-07-26T07:04:34.286Z,32.08
2022-07-26T07:07:08.518Z,32.13
2022-07-26T07:09:37.601Z,31.31
2022-07-26T07:12:10.093Z,31.09
2022-07-26T07:14:39.148Z,31.61
2022-07-26T07:17:10.542Z,31.88
2022-07-26T07:19:40.854Z,31.83
2022-07-26T07:22:11.861Z,32.45
2022-07-26T07:24:40.765Z,33.15
2022-07-26T07:27:09.116Z,33.39
2022-07-26T07:29:38.764Z,33.23
2022-07-26T07:32:18.153Z,32.03
2022-07-26T07:34:47.937Z,32.64
2022-07-26T07:37:16.815Z,32.25
2022-07-26T07:39:44.347Z,31.99
2022-07-26T07:42:19.500Z,31.53
2022-07-26T07:44:47.440Z,30.54
2022-07-26T07:47:14.965Z,30.42
2022-07-26T07:49:43.038Z,29.96
2022-07-26T07:52:10.465Z,30.08
2022-07-26T07:54:37.858Z,29.79
2022-07-26T07:57:05.615Z,29.50
2022-07-26T07:59:33.004Z,29.35
2022-07-26T08:02:06.449Z,29.57
2022-07-26T08:04:34.171Z,29.33
2022-07-26T08:07:01.669Z,29.78
2022-07-26T08:09:29.102Z,29.66
2022-07-26T08:11:56.750Z,29.37
2022-07-26T08:14:24.332Z,29.56
2022-07-26T08:16:52.312Z,29.16
2022-07-26T08:19:20.055Z,29.26
2022-07-26T08:21:50.024Z,29.23
2022-07-26T08:24:17.756Z,29.30
2022-07-26T08:26:45.569Z,28.89
2022-07-26T08:29:13.283Z,29.29
2022-07-26T08:31:40.916Z,29.96
2022-07-26T08:34:08.659Z,29.86
2022-07-26T08:36:36.045Z,29.55
2022-07-26T08:39:03.866Z,30.00
2022-07-26T08:41:31.582Z,30.37
2022-07-26T08:44:09.664Z,30.23
2022-07-26T08:46:39.323Z,30.21
2022-07-26T08:49:08.618Z,30.12
2022-07-26T08:51:43.201Z,30.12
2022-07-26T08:54:14.341Z,29.40
2022-07-26T08:56:50.403Z,29.96
2022-07-26T08:59:21.174Z,29.98
2022-07-26T09:01:57.282Z,29.67
2022-07-26T09:04:32.690Z,29.30
2022-07-26T09:07:03.360Z,29.53
2022-07-26T09:09:35.681Z,30.04
2022-07-26T09:12:20.250Z,30.16
2022-07-26T09:14:48.407Z,29.54
2022-07-26T09:17:20.955Z,29.25
2022-07-26T09:20:11.730Z,29.54
2022-07-26T09:22:56.632Z,29.50
2022-07-26T09:25:25.143Z,29.04
2022-07-26T09:27:52.918Z,29.10
2022-07-26T09:30:20.881Z,28.97
2022-07-26T09:33:06.437Z,29.23
2022-07-26T09:35:50.393Z,29.14
2022-07-26T09:38:19.877Z,28.57
2022-07-26T09:40:50.706Z,28.57
2022-07-26T09:43:24.163Z,28.39
2022-07-26T09:46:07.157Z,28.53
2022-07-26T09:49:07.098Z,27.46
2022-07-26T09:51:41.502Z,26.89
2022-07-26T09:54:17.169Z,26.62
2022-07-26T09:56:51.273Z,26.63
2022-07-26T09:59:21.595Z,26.48
2022-07-26T10:01:50.715Z,26.71
2022-07-26T10:04:18.974Z,25.72
2022-07-26T10:06:46.706Z,25.71
2022-07-26T10:09:37.645Z,25.35
2022-07-26T10:12:09.466Z,25.54
2022-07-26T10:14:38.153Z,24.74
2022-07-26T10:17:34.955Z,25.10
2022-07-26T10:20:16.856Z,25.20
2022-07-26T10:22:52.476Z,25.03
2022-07-26T10:25:20.110Z,24.80
2022-07-26T10:27:52.556Z,24.59
2022-07-26T10:30:24.016Z,24.40
2022-07-26T10:32:51.796Z,24.36
2022-07-26T10:35:34.543Z,23.76
2022-07-26T10:38:08.055Z,24.30
2022-07-26T10:40:36.883Z,24.01
2022-07-26T10:46:13.418Z,24.30
2022-07-26T10:49:04.074Z,23.55
2022-07-26T10:51:40.337Z,23.28
2022-07-26T10:54:13.883Z,23.47
2022-07-26T10:56:41.652Z,23.53
2022-07-26T10:59:09.622Z,23.66
2022-07-26T11:01:39.436Z,24.12
2022-07-26T11:04:19.798Z,24.40
2022-07-26T11:06:47.650Z,24.42
2022-07-26T11:09:16.090Z,24.16
2022-07-26T11:11:47.045Z,24.06
2022-07-26T11:14:17.906Z,24.17
2022-07-26T11:16:48.014Z,23.63
2022-07-26T11:19:20.743Z,23.69
2022-07-26T11:21:56.129Z,23.94
2022-07-26T11:24:24.069Z,23.99
2022-07-26T11:26:51.478Z,24.25
2022-07-26T11:29:37.970Z,24.48
2022-07-26T11:32:19.059Z,24.30
2022-07-26T11:34:47.886Z,24.53
2022-07-26T11:37:16.032Z,24.20
2022-07-26T11:39:43.492Z,24.11
2022-07-26T11:42:19.694Z,24.19
2022-07-26T11:44:49.017Z,23.76
2022-07-26T11:47:20.175Z,24.31
2022-07-26T11:50:00.208Z,24.22
2022-07-26T11:52:36.963Z,24.79
2022-07-26T11:55:05.035Z,24.60
2022-07-26T11:57:32.915Z,25.04
2022-07-26T12:00:01.035Z,25.06
2022-07-26T12:02:39.055Z,24.89
2022-07-26T12:05:28.388Z,24.68
2022-07-26T12:08:00.603Z,24.94
2022-07-26T12:10:28.632Z,25.15
2022-07-26T12:13:15.930Z,25.25
2022-07-26T12:15:49.235Z,25.19
2022-07-26T12:18:24.736Z,24.56
2022-07-26T12:21:07.117Z,24.78
2022-07-26T12:23:49.411Z,24.39
2022-07-26T12:26:22.066Z,25.23
2022-07-26T12:28:49.494Z,25.22
2022-07-26T12:31:27.098Z,24.46
2022-07-26T12:33:54.793Z,25.02
2022-07-26T12:36:27.861Z,24.94
2022-07-26T12:39:00.401Z,24.44
2022-07-26T12:41:35.776Z,24.67
2022-07-26T12:44:04.214Z,25.14
2022-07-26T12:46:36.039Z,24.73
2022-07-26T12:49:04.272Z,24.93
2022-07-26T12:51:32.180Z,24.06
2022-07-26T12:53:59.655Z,24.64
2022-07-26T12:56:27.092Z,24.79
2022-07-26T12:59:01.118Z,24.92
2022-07-26T13:01:29.840Z,24.73
2022-07-26T13:03:57.774Z,24.96
2022-07-26T13:06:25.261Z,24.97
2022-07-26T13:08:52.663Z,25.32
2022-07-26T13:11:20.316Z,25.30
2022-07-26T13:13:47.791Z,25.31
2022-07-26T13:16:15.309Z,25.41
2022-07-26T13:18:42.954Z,25.88
2022-07-26T13:21:11.286Z,25.88
2022-07-26T13:23:39.650Z,25.90
2022-07-26T13:26:09.340Z,25.51
2022-07-26T13:28:37.782Z,25.32
2022-07-26T13:31:06.027Z,25.66
2022-07-26T13:33:33.787Z,25.73
2022-07-26T13:36:01.187Z,25.68
2022-07-26T13:38:31.312Z,25.96
2022-07-26T13:40:59.865Z,26.03
2022-07-26T13:43:27.334Z,26.24
2022-07-26T13:45:54.808Z,26.58
2022-07-26T13:48:22.498Z,26.52
2022-07-26T13:50:49.945Z,26.70
2022-07-26T13:53:17.324Z,27.01
2022-07-26T13:55:44.954Z,26.88
2022-07-26T13:58:12.408Z,26.35
2022-07-26T14:00:40.732Z,26.75
2022-07-26T14:03:08.666Z,26.23
2022-07-26T14:05:36.116Z,26.74
2022-07-26T14:08:03.651Z,26.78
2022-07-26T14:10:31.363Z,27.04
2022-07-26T14:12:59.153Z,27.12
2022-07-26T14:15:26.558Z,27.60
2022-07-26T14:17:54.294Z,26.68
2022-07-26T14:20:21.918Z,26.77
2022-07-26T14:22:53.567Z,26.45
2022-07-26T14:25:25.460Z,26.84
2022-07-26T14:27:54.049Z,26.89
2022-07-26T14:30:22.663Z,27.31
2022-07-26T14:32:50.184Z,26.53
2022-07-26T14:35:18.012Z,27.16
2022-07-26T14:37:46.211Z,27.05
2022-07-26T14:40:15.394Z,26.50
2022-07-26T14:42:43.424Z,27.01
2022-07-26T14:45:11.582Z,27.09
2022-07-26T14:47:41.616Z,27.19
2022-07-26T14:50:10.424Z,26.87
2022-07-26T14:52:43.197Z,26.54
2022-07-26T14:55:10.945Z,26.75
2022-07-26T14:57:40.046Z,27.00
2022-07-26T15:00:10.155Z,27.37
2022-07-26T15:02:45.210Z,27.02
2022-07-26T15:05:14.259Z,26.95
2022-07-26T15:07:42.400Z,26.49
2022-07-26T15:10:12.876Z,27.15
2022-07-26T15:12:41.228Z,26.96
2022-07-26T15:15:09.890Z,27.11
2022-07-26T15:17:37.675Z,27.20
2022-07-26T15:20:06.088Z,27.01
2022-07-26T15:22:33.413Z,27.39
2022-07-26T15:25:00.810Z,27.05
2022-07-26T15:27:28.925Z,26.83
2022-07-26T15:30:02.620Z,27.07
2022-07-26T15:32:31.737Z,27.31
2022-07-26T15:34:59.236Z,27.60
2022-07-26T15:37:26.802Z,26.85
2022-07-26T15:39:54.546Z,27.39
2022-07-26T15:42:23.293Z,27.15
2022-07-26T15:44:51.065Z,27.33
2022-07-26T15:47:43.511Z,27.10
2022-07-26T15:50:08.248Z,27.41
2022-07-26T15:52:40.541Z,27.29
2022-07-26T15:55:09.217Z,27.41
2022-07-26T15:57:36.896Z,27.73
2022-07-26T16:00:11.698Z,27.30
2022-07-26T16:02:40.509Z,27.29
2022-07-26T16:05:08.927Z,26.96
2022-07-26T16:07:36.381Z,27.46
2022-07-26T16:10:05.237Z,27.36
2022-07-26T16:12:33.558Z,27.19
2022-07-26T16:15:01.154Z,26.86
2022-07-26T16:17:28.974Z,27.01
2022-07-26T16:19:56.696Z,27.29
2022-07-26T16:22:24.463Z,27.35
2022-07-26T16:24:52.167Z,27.32
2022-07-26T16:27:19.565Z,27.47
2022-07-26T16:29:51.831Z,27.61
2022-07-26T16:32:21.352Z,27.25
2022-07-26T16:34:49.133Z,27.22
2022-07-26T16:37:16.553Z,27.11
2022-07-26T16:40:03.596Z,27.11
2022-07-26T16:42:31.073Z,27.15
2022-07-26T16:44:58.777Z,27.17
2022-07-26T16:47:26.474Z,26.89
2022-07-26T16:49:53.955Z,26.99
2022-07-26T16:52:22.864Z,27.20
2022-07-26T16:54:50.294Z,27.19
2022-07-26T16:57:17.674Z,27.36
2022-07-26T16:59:45.306Z,27.22
2022-07-26T17:02:12.836Z,27.11
2022-07-26T17:04:40.348Z,26.59
2022-07-26T17:07:24.441Z,26.88
2022-07-26T17:09:53.079Z,26.89
2022-07-26T17:12:21.138Z,27.10
2022-07-26T17:14:48.605Z,26.59
2022-07-26T17:17:16.074Z,26.69
2022-07-26T17:19:43.736Z,26.72
2022-07-26T17:22:11.133Z,26.82
2022-07-26T17:24:38.567Z,26.46
2022-07-26T17:27:06.400Z,26.40
2022-07-26T17:29:33.831Z,26.62
2022-07-26T17:32:01.276Z,26.67
2022-07-26T17:34:29.072Z,26.64
2022-07-26T17:36:58.513Z,26.49
2022-07-26T17:39:34.132Z,26.64
2022-07-26T17:42:15.617Z,26.48
2022-07-26T17:44:42.995Z,26.58
2022-07-26T17:47:18.231Z,26.55
2022-07-26T17:50:19.491Z,26.37
2022-07-26T17:52:50.476Z,26.45
2022-07-26T17:55:20.937Z,26.01
2022-07-26T17:57:49.943Z,25.97
2022-07-26T18:00:19.415Z,25.85
2022-07-26T18:02:47.574Z,25.75
2022-07-26T18:05:15.122Z,26.07
2022-07-26T18:07:42.562Z,26.02
2022-07-26T18:10:11.235Z,26.04
2022-07-26T18:12:39.251Z,26.05
2022-07-26T18:15:07.651Z,26.03
2022-07-26T18:17:35.323Z,25.84
2022-07-26T18:20:02.895Z,25.62
2022-07-26T18:22:30.306Z,25.43
2022-07-26T18:24:58.018Z,25.30
2022-07-26T18:27:28.413Z,25.34
2022-07-26T18:29:56.655Z,25.47
2022-07-26T18:32:24.838Z,25.87
2022-07-26T18:34:53.368Z,25.58
2022-07-26T18:37:23.692Z,25.60
2022-07-26T18:39:57.052Z,25.20
2022-07-26T18:42:25.902Z,25.05
2022-07-26T18:44:53.566Z,25.27
2022-07-26T18:47:21.185Z,25.36
2022-07-26T18:49:48.731Z,24.91
2022-07-26T18:52:17.932Z,25.61
2022-07-26T18:54:56.411Z,25.03
2022-07-26T18:57:24.305Z,25.36
2022-07-26T18:59:51.723Z,25.38
2022-07-26T19:02:19.109Z,25.13
2022-07-26T19:04:46.767Z,25.25
2022-07-26T19:07:14.171Z,25.20
2022-07-26T19:09:41.560Z,25.29
2022-07-26T19:12:09.288Z,25.52
2022-07-26T19:14:36.716Z,25.18
2022-07-26T19:17:05.894Z,25.03
2022-07-26T19:19:33.552Z,25.21
2022-07-26T19:22:00.926Z,25.02
2022-07-26T19:24:41.763Z,25.09
2022-07-26T19:27:09.656Z,25.09
2022-07-26T19:29:37.725Z,25.07
2022-07-26T19:32:05.410Z,25.05
2022-07-26T19:34:33.140Z,25.10
2022-07-26T19:37:00.527Z,24.72
2022-07-26T19:39:28.027Z,24.91
2022-07-26T19:41:55.753Z,24.83
2022-07-26T19:44:23.180Z,24.84
2022-07-26T19:46:55.519Z,24.94
2022-07-26T19:49:25.285Z,24.85
2022-07-26T19:51:52.807Z,24.97
2022-07-26T19:54:21.329Z,24.89
2022-07-26T19:56:49.102Z,24.67
2022-07-26T19:59:22.703Z,25.01
2022-07-26T20:01:52.975Z,24.77
2022-07-26T20:04:21.597Z,24.79
2022-07-26T20:06:49.831Z,25.29
2022-07-26T20:09:17.230Z,24.91
2022-07-26T20:11:50.689Z,24.43
2022-07-26T20:14:19.471Z,24.60
2022-07-26T20:16:50.427Z,24.62
2022-07-26T20:19:20.313Z,24.57
2022-07-26T20:21:48.035Z,24.98
2022-07-26T20:24:15.445Z,24.54
2022-07-26T20:26:42.927Z,24.73
2022-07-26T20:29:11.588Z,24.69
2022-07-26T20:31:39.249Z,24.18
2022-07-26T20:34:06.665Z,24.40
2022-07-26T20:36:34.325Z,24.25
2022-07-26T20:39:02.287Z,24.38
2022-07-26T20:41:33.979Z,24.44
2022-07-26T20:44:01.872Z,23.84
2022-07-26T20:46:29.338Z,23.78
2022-07-26T20:48:57.270Z,23.85
2022-07-26T20:51:25.430Z,23.68
2022-07-26T20:53:52.848Z,23.99
2022-07-26T20:56:20.253Z,24.06
2022-07-26T20:58:47.972Z,23.79
2022-07-26T21:01:15.559Z,23.88
2022-07-26T21:03:43.125Z,23.87
2022-07-26T21:06:10.783Z,23.76
2022-07-26T21:08:38.182Z,23.78
2022-07-26T21:11:05.598Z,23.60
2022-07-26T21:13:34.280Z,23.49
2022-07-26T21:16:01.679Z,23.68
2022-07-26T21:18:30.016Z,23.18
2022-07-26T21:20:58.278Z,23.27
2022-07-26T21:23:25.782Z,23.70
2022-07-26T21:25:58.126Z,23.53
2022-07-26T21:28:28.894Z,23.53
2022-07-26T21:30:56.296Z,23.57
2022-07-26T21:33:24.856Z,23.90
2022-07-26T21:35:52.527Z,23.61
2022-07-26T21:38:19.924Z,23.60
2022-07-26T21:40:47.601Z,23.09
2022-07-26T21:43:15.252Z,23.24
2022-07-26T21:45:42.700Z,23.35
2022-07-26T21:48:10.134Z,23.09
2022-07-26T21:50:37.803Z,22.91
2022-07-26T21:53:05.202Z,22.86
2022-07-26T21:55:32.692Z,23.00
2022-07-26T21:58:00.352Z,22.95
2022-07-26T22:00:27.758Z,23.01
2022-07-26T22:02:55.563Z,23.23
2022-07-26T22:05:35.393Z,23.30
2022-07-26T22:08:10.440Z,23.33
2022-07-26T22:10:42.339Z,23.22
2022-07-26T22:13:13.749Z,23.40
2022-07-26T22:15:42.024Z,23.03
2022-07-26T22:18:09.934Z,22.73
2022-07-26T22:20:38.103Z,23.08
2022-07-26T22:23:08.422Z,22.92
2022-07-26T22:25:37.303Z,23.01
2022-07-26T22:28:06.561Z,22.93
2022-07-26T22:30:34.008Z,22.71
2022-07-26T22:33:02.723Z,22.91
2022-07-26T22:35:35.686Z,22.90
2022-07-26T22:38:06.252Z,22.86
2022-07-26T22:40:33.974Z,22.90
2022-07-26T22:43:01.356Z,22.71
2022-07-26T22:45:30.009Z,22.80
2022-07-26T22:47:58.111Z,22.58
2022-07-26T22:50:25.772Z,22.54
2022-07-26T22:52:53.274Z,22.69
2022-07-26T22:55:21.560Z,22.65
2022-07-26T22:57:49.348Z,22.77
2022-07-26T23:00:17.946Z,22.39
2022-07-26T23:02:46.006Z,22.57
2022-07-26T23:05:15.323Z,22.60
2022-07-26T23:07:47.149Z,22.37
2022-07-26T23:10:16.981Z,22.35
2022-07-26T23:12:44.583Z,22.19
2022-07-26T23:15:12.535Z,21.99
2022-07-26T23:17:40.334Z,21.84
2022-07-26T23:20:09.361Z,22.28
2022-07-26T23:22:38.319Z,22.53
2022-07-26T23:25:06.373Z,21.83
2022-07-26T23:27:33.820Z,22.29
2022-07-26T23:30:01.228Z,22.24
2022-07-26T23:32:28.985Z,21.66
2022-07-26T23:34:56.374Z,22.16
2022-07-26T23:37:23.762Z,22.18
2022-07-26T23:39:51.436Z,21.90
2022-07-26T23:42:18.803Z,21.74
2022-07-26T23:44:46.182Z,21.79
2022-07-26T23:47:13.934Z,21.75
2022-07-26T23:49:41.422Z,21.87
2022-07-26T23:52:08.822Z,21.92
2022-07-26T23:54:37.415Z,21.69
2022-07-26T23:57:04.804Z,21.73
2022-07-26T23:59:32.191Z,21.76
